createdAt,value
2022-12-16T00:01:29.024Z,66.00
2022-12-16T00:03:57.782Z,57.17
2022-12-16T00:06:26.794Z,59.17
2022-12-16T00:08:53.660Z,65.53
2022-12-16T00:11:21.678Z,67.20
2022-12-16T00:13:48.888Z,64.53
2022-12-16T00:16:17.653Z,61.47
2022-12-16T00:18:45.037Z,65.70
2022-12-16T00:21:12.464Z,68.33
2022-12-16T00:23:41.845Z,66.87
2022-12-16T00:26:09.186Z,62.43
2022-12-16T00:28:36.171Z,68.07
2022-12-16T00:31:03.294Z,68.90
2022-12-16T00:33:30.714Z,65.90
2022-12-16T00:35:57.871Z,61.40
2022-12-16T00:38:26.321Z,69.77
2022-12-16T00:40:53.102Z,68.00
2022-12-16T00:43:20.310Z,69.70
2022-12-16T00:45:48.022Z,63.47
2022-12-16T00:48:15.444Z,61.30
2022-12-16T00:50:48.968Z,68.50
2022-12-16T00:53:15.719Z,70.60
2022-12-16T00:55:43.315Z,61.70
2022-12-16T00:58:10.577Z,72.37
2022-12-16T01:00:37.335Z,64.87
2022-12-16T01:03:04.971Z,60.37
2022-12-16T01:05:31.691Z,66.93
2022-12-16T01:07:58.360Z,66.17
2022-12-16T01:10:25.835Z,63.87
2022-12-16T01:12:52.626Z,67.47
2022-12-16T01:15:19.793Z,67.27
2022-12-16T01:17:46.871Z,64.87
2022-12-16T01:20:14.281Z,65.87
2022-12-16T01:22:41.277Z,65.63
2022-12-16T01:25:10.167Z,65.70
2022-12-16T01:27:36.815Z,63.83
2022-12-16T01:30:03.965Z,63.53
2022-12-16T01:32:30.609Z,61.37
2022-12-16T01:34:57.381Z,62.43
2022-12-16T01:37:24.299Z,64.13
2022-12-16T01:39:51.087Z,65.03
2022-12-16T01:42:21.850Z,63.70
2022-12-16T01:44:52.286Z,61.73
2022-12-16T01:47:33.257Z,64.83
2022-12-16T01:50:07.364Z,60.50
2022-12-16T01:52:40.258Z,61.30
2022-12-16T01:55:16.386Z,62.83
2022-12-16T01:57:48.056Z,58.43
2022-12-16T02:00:15.010Z,60.40
2022-12-16T02:02:45.491Z,60.70
2022-12-16T02:05:21.101Z,60.57
2022-12-16T02:07:56.197Z,58.43
2022-12-16T02:10:34.025Z,57.80
2022-12-16T02:13:25.449Z,59.93
2022-12-16T02:16:18.180Z,55.83
2022-12-16T02:19:23.354Z,58.83
2022-12-16T02:22:05.515Z,54.07
2022-12-16T02:24:44.206Z,63.97
2022-12-16T02:27:47.972Z,59.53
2022-12-16T02:30:34.380Z,55.10
2022-12-16T02:33:13.242Z,62.97
2022-12-16T02:35:41.770Z,58.63
2022-12-16T02:38:26.618Z,53.13
2022-12-16T02:41:02.842Z,57.17
2022-12-16T02:44:04.405Z,57.77
2022-12-16T02:46:35.368Z,54.77
2022-12-16T02:49:29.132Z,55.03
2022-12-16T02:51:59.377Z,60.17
2022-12-16T02:54:27.382Z,61.13
2022-12-16T02:56:57.003Z,60.70
2022-12-16T02:59:54.340Z,62.30
2022-12-16T03:02:54.948Z,61.73
2022-12-16T03:05:48.173Z,59.43
2022-12-16T03:08:25.025Z,58.17
2022-12-16T03:10:56.853Z,59.43
2022-12-16T03:13:23.819Z,58.33
2022-12-16T03:15:53.927Z,64.07
2022-12-16T03:18:22.022Z,62.17
2022-12-16T03:21:00.464Z,60.13
2022-12-16T03:23:40.923Z,58.17
2022-12-16T03:26:15.884Z,57.20
2022-12-16T03:28:51.687Z,60.47
2022-12-16T03:31:51.306Z,66.30
2022-12-16T03:34:33.179Z,62.50
2022-12-16T03:37:04.220Z,64.63
2022-12-16T03:39:39.931Z,56.57
2022-12-16T03:42:07.736Z,57.20
2022-12-16T03:44:35.592Z,62.97
2022-12-16T03:47:04.999Z,56.27
2022-12-16T03:49:31.706Z,61.47
2022-12-16T03:51:58.357Z,53.03
2022-12-16T03:54:25.769Z,53.87
2022-12-16T03:56:52.467Z,56.07
2022-12-16T03:59:19.223Z,52.63
2022-12-16T04:01:46.096Z,53.30
2022-12-16T04:04:12.956Z,52.40
2022-12-16T04:06:39.592Z,50.83
2022-12-16T04:09:06.296Z,52.97
2022-12-16T04:11:51.567Z,51.63
2022-12-16T04:14:36.966Z,49.70
2022-12-16T04:17:22.566Z,47.77
2022-12-16T04:20:08.797Z,47.90
2022-12-16T04:22:59.017Z,51.00
2022-12-16T04:25:32.566Z,46.87
2022-12-16T04:27:59.215Z,45.50
2022-12-16T04:30:27.928Z,42.53
2022-12-16T04:33:19.574Z,40.57
2022-12-16T04:36:04.878Z,38.50
2022-12-16T04:38:50.651Z,37.60
2022-12-16T04:41:35.777Z,35.47
2022-12-16T04:44:22.048Z,34.07
2022-12-16T04:47:07.286Z,29.50
2022-12-16T04:49:52.592Z,32.77
2022-12-16T04:52:38.399Z,28.13
2022-12-16T04:55:25.186Z,27.80
2022-12-16T04:58:12.701Z,21.30
2022-12-16T05:00:58.524Z,26.23
2022-12-16T05:03:44.874Z,27.00
2022-12-16T05:06:30.698Z,27.73
2022-12-16T05:09:15.788Z,27.17
2022-12-16T05:12:01.592Z,23.20
2022-12-16T05:14:46.818Z,23.90
2022-12-16T05:17:33.886Z,24.50
2022-12-16T05:20:19.686Z,21.93
2022-12-16T05:23:04.840Z,23.53
2022-12-16T05:25:50.676Z,29.07
2022-12-16T05:28:37.621Z,20.57
2022-12-16T05:31:23.382Z,24.17
2022-12-16T05:34:08.647Z,27.10
2022-12-16T05:36:53.879Z,25.10
2022-12-16T05:39:39.240Z,32.53
2022-12-16T05:42:24.751Z,29.07
2022-12-16T05:45:10.073Z,20.63
2022-12-16T05:47:55.300Z,23.10
2022-12-16T05:50:40.464Z,24.70
2022-12-16T05:53:25.801Z,30.83
2022-12-16T05:56:11.120Z,29.13
2022-12-16T05:58:56.180Z,25.77
2022-12-16T06:01:41.611Z,25.33
2022-12-16T06:04:26.789Z,22.20
2022-12-16T06:07:11.999Z,21.23
2022-12-16T06:09:57.188Z,20.73
2022-12-16T06:12:43.001Z,22.40
2022-12-16T06:15:28.775Z,20.03
2022-12-16T06:18:14.408Z,24.93
2022-12-16T06:21:00.166Z,21.07
2022-12-16T06:23:45.374Z,18.37
2022-12-16T06:26:30.650Z,23.03
2022-12-16T06:29:15.889Z,26.30
2022-12-16T06:32:01.115Z,20.83
2022-12-16T06:34:57.101Z,25.07
2022-12-16T06:37:42.125Z,23.40
2022-12-16T06:40:28.527Z,26.37
2022-12-16T06:43:13.736Z,24.33
2022-12-16T06:45:59.134Z,22.37
2022-12-16T06:48:44.337Z,22.70
2022-12-16T06:51:29.574Z,24.73
2022-12-16T06:54:14.781Z,23.70
2022-12-16T06:57:00.072Z,23.87
2022-12-16T06:59:45.500Z,25.93
2022-12-16T07:02:32.766Z,26.07
2022-12-16T07:05:18.141Z,29.07
2022-12-16T07:08:08.488Z,28.77
2022-12-16T07:10:55.283Z,30.93
2022-12-16T07:13:42.135Z,28.33
2022-12-16T07:16:27.388Z,33.13
2022-12-16T07:19:12.530Z,32.03
2022-12-16T07:21:57.704Z,42.03
2022-12-16T07:24:43.049Z,39.90
2022-12-16T07:27:28.192Z,37.43
2022-12-16T07:30:13.429Z,35.83
2022-12-16T07:32:58.617Z,32.80
2022-12-16T07:35:43.938Z,27.27
2022-12-16T07:38:29.118Z,29.97
2022-12-16T07:41:14.507Z,29.80
2022-12-16T07:43:59.978Z,33.07
2022-12-16T07:46:45.348Z,36.60
2022-12-16T07:49:30.852Z,33.60
2022-12-16T07:52:16.090Z,35.87
2022-12-16T07:55:08.826Z,28.43
2022-12-16T07:57:54.193Z,32.57
2022-12-16T08:00:39.347Z,26.53
2022-12-16T08:03:24.612Z,34.83
2022-12-16T08:06:09.875Z,26.73
2022-12-16T08:08:54.889Z,30.67
2022-12-16T08:11:40.097Z,27.67
2022-12-16T08:14:25.315Z,24.10
2022-12-16T08:17:10.617Z,28.80
2022-12-16T08:19:55.994Z,24.90
2022-12-16T08:22:41.032Z,27.53
2022-12-16T08:25:26.282Z,24.50
2022-12-16T08:28:14.990Z,25.30
2022-12-16T08:31:00.356Z,21.77
2022-12-16T08:33:45.747Z,20.37
2022-12-16T08:36:30.923Z,18.20
2022-12-16T08:39:16.207Z,23.43
2022-12-16T08:42:01.390Z,21.07
2022-12-16T08:44:46.712Z,20.20
2022-12-16T08:47:32.299Z,20.10
2022-12-16T08:50:17.457Z,22.27
2022-12-16T08:53:03.235Z,19.70
2022-12-16T08:55:48.518Z,19.03
2022-12-16T08:58:34.323Z,16.83
2022-12-16T09:01:19.623Z,17.53
2022-12-16T09:04:04.963Z,18.90
2022-12-16T09:06:50.418Z,17.27
2022-12-16T09:09:35.564Z,19.13
2022-12-16T09:12:21.184Z,16.70
2022-12-16T09:15:06.426Z,16.10
2022-12-16T09:17:51.957Z,22.23
2022-12-16T09:20:38.240Z,20.70
2022-12-16T09:23:23.853Z,18.80
2022-12-16T09:26:09.141Z,18.57
2022-12-16T09:28:54.429Z,18.37
2022-12-16T09:31:39.949Z,15.53
2022-12-16T09:34:25.327Z,18.03
2022-12-16T09:37:10.492Z,16.67
2022-12-16T09:39:55.646Z,19.27
2022-12-16T09:43:12.247Z,15.53
2022-12-16T09:46:12.671Z,14.43
2022-12-16T09:49:14.892Z,13.87
2022-12-16T09:52:01.627Z,11.90
2022-12-16T09:54:50.318Z,16.47
2022-12-16T09:57:38.295Z,13.60
2022-12-16T10:00:37.681Z,15.10
2022-12-16T10:03:32.267Z,17.30
2022-12-16T10:06:24.923Z,9.77
2022-12-16T10:09:37.480Z,15.37
2022-12-16T10:12:34.901Z,12.00
2022-12-16T10:15:45.291Z,12.00
2022-12-16T10:19:01.069Z,13.63
2022-12-16T10:21:53.413Z,11.23
2022-12-16T10:24:44.647Z,12.03
2022-12-16T10:27:35.552Z,16.07
2022-12-16T10:30:22.041Z,13.37
2022-12-16T10:33:10.342Z,12.43
2022-12-16T10:36:03.123Z,13.40
2022-12-16T10:39:02.227Z,21.63
2022-12-16T10:41:52.980Z,18.87
2022-12-16T10:45:07.398Z,14.57
2022-12-16T10:47:52.658Z,14.83
2022-12-16T10:50:38.730Z,13.10
2022-12-16T10:53:33.724Z,16.60
2022-12-16T10:56:40.870Z,14.00
2022-12-16T10:59:28.052Z,13.03
2022-12-16T11:02:22.569Z,16.87
2022-12-16T11:05:08.282Z,18.80
2022-12-16T11:08:02.745Z,15.37
2022-12-16T11:10:53.467Z,17.00
2022-12-16T11:13:55.004Z,15.27
2022-12-16T11:16:47.571Z,15.23
2022-12-16T11:19:41.401Z,21.53
2022-12-16T11:22:35.314Z,15.77
2022-12-16T11:25:25.015Z,15.60
2022-12-16T11:28:20.364Z,15.37
2022-12-16T11:31:14.278Z,11.63
2022-12-16T11:34:01.055Z,13.97
2022-12-16T11:36:46.658Z,14.63
2022-12-16T11:39:38.540Z,13.33
2022-12-16T11:42:25.202Z,10.13
2022-12-16T11:45:20.487Z,12.57
2022-12-16T11:48:19.959Z,12.13
2022-12-16T11:51:15.456Z,11.60
2022-12-16T11:54:26.109Z,12.03
2022-12-16T11:57:11.275Z,12.37
2022-12-16T12:00:00.504Z,13.40
2022-12-16T12:03:09.135Z,13.33
2022-12-16T12:06:07.852Z,10.80
2022-12-16T12:08:57.546Z,12.40
2022-12-16T12:12:01.654Z,16.57
2022-12-16T12:15:02.089Z,15.77
2022-12-16T12:18:12.281Z,11.30
2022-12-16T12:21:12.890Z,12.47
2022-12-16T12:24:20.465Z,13.63
2022-12-16T12:27:18.790Z,9.63
2022-12-16T12:30:16.845Z,9.57
2022-12-16T12:33:16.446Z,11.13
2022-12-16T12:36:23.808Z,13.13
2022-12-16T12:39:28.030Z,9.87
2022-12-16T12:42:22.583Z,17.27
2022-12-16T12:45:13.297Z,14.80
2022-12-16T12:48:19.626Z,10.40
2022-12-16T12:51:32.596Z,15.63
2022-12-16T12:54:39.638Z,13.40
2022-12-16T12:57:27.699Z,16.40
2022-12-16T13:00:22.172Z,10.60
2022-12-16T13:03:22.754Z,10.93
2022-12-16T13:06:09.179Z,11.43
2022-12-16T13:09:02.573Z,12.37
2022-12-16T13:11:47.755Z,11.10
2022-12-16T13:14:51.529Z,9.17
2022-12-16T13:17:39.131Z,11.10
2022-12-16T13:20:50.679Z,11.00
2022-12-16T13:23:45.935Z,13.73
2022-12-16T13:26:37.137Z,10.03
2022-12-16T13:29:43.929Z,12.23
2022-12-16T13:32:29.103Z,10.73
2022-12-16T13:35:28.845Z,12.20
2022-12-16T13:38:37.296Z,13.40
2022-12-16T13:41:25.524Z,15.30
2022-12-16T13:44:16.038Z,12.43
2022-12-16T13:47:09.913Z,13.03
2022-12-16T13:49:55.299Z,11.07
2022-12-16T13:53:16.531Z,13.37
2022-12-16T13:56:13.753Z,9.67
2022-12-16T13:59:07.126Z,9.47
2022-12-16T14:02:01.627Z,10.43
2022-12-16T14:04:51.306Z,11.40
2022-12-16T14:07:39.313Z,11.70
2022-12-16T14:10:38.854Z,14.43
2022-12-16T14:13:33.857Z,15.37
2022-12-16T14:16:38.738Z,13.13
2022-12-16T14:19:47.631Z,13.40
2022-12-16T14:22:59.072Z,14.70
2022-12-16T14:25:44.436Z,19.73
2022-12-16T14:28:51.148Z,20.30
2022-12-16T14:31:52.803Z,23.50
2022-12-16T14:34:47.207Z,29.20
2022-12-16T14:37:41.614Z,24.77
2022-12-16T14:40:41.990Z,26.50
2022-12-16T14:43:44.445Z,17.67
2022-12-16T14:46:55.951Z,16.67
2022-12-16T14:49:46.873Z,15.20
2022-12-16T14:52:46.247Z,20.83
2022-12-16T14:55:37.521Z,20.27
2022-12-16T14:58:34.194Z,17.33
2022-12-16T15:01:23.875Z,19.97
2022-12-16T15:04:09.331Z,17.50
2022-12-16T15:07:01.736Z,18.73
2022-12-16T15:09:52.638Z,16.30
2022-12-16T15:12:44.058Z,19.93
2022-12-16T15:15:40.909Z,27.03
2022-12-16T15:18:36.678Z,28.07
2022-12-16T15:21:22.406Z,23.27
2022-12-16T15:24:07.639Z,24.43
2022-12-16T15:26:53.938Z,24.73
2022-12-16T15:29:59.968Z,20.50
2022-12-16T15:32:52.938Z,18.23
2022-12-16T15:35:44.299Z,15.00
2022-12-16T15:38:42.063Z,20.60
2022-12-16T15:41:41.292Z,17.87
2022-12-16T15:44:38.322Z,16.70
2022-12-16T15:47:25.749Z,16.53
2022-12-16T15:50:11.001Z,21.13
2022-12-16T15:53:03.302Z,19.80
2022-12-16T15:55:49.970Z,15.83
2022-12-16T15:58:44.977Z,20.23
2022-12-16T16:01:32.748Z,19.53
2022-12-16T16:04:18.427Z,22.03
2022-12-16T16:07:11.559Z,16.10
2022-12-16T16:09:58.335Z,14.67
2022-12-16T16:12:44.499Z,20.20
2022-12-16T16:15:31.899Z,18.60
2022-12-16T16:18:20.314Z,20.07
2022-12-16T16:21:05.819Z,18.73
2022-12-16T16:23:51.096Z,14.17
2022-12-16T16:26:41.083Z,10.87
2022-12-16T16:29:28.636Z,12.53
2022-12-16T16:32:13.687Z,12.37
2022-12-16T16:34:58.991Z,12.40
2022-12-16T16:37:44.146Z,12.50
2022-12-16T16:40:55.992Z,12.60
2022-12-16T16:43:42.568Z,12.73
2022-12-16T16:46:40.179Z,16.00
2022-12-16T16:49:30.324Z,8.93
2022-12-16T16:52:15.715Z,8.63
2022-12-16T16:55:00.942Z,15.65
2022-12-16T16:57:48.704Z,12.00
2022-12-16T17:00:34.432Z,9.33
2022-12-16T17:03:19.755Z,12.40
2022-12-16T17:06:05.278Z,13.10
2022-12-16T17:08:50.588Z,12.00
2022-12-16T17:11:38.825Z,13.77
2022-12-16T17:14:24.112Z,13.63
2022-12-16T17:17:09.649Z,12.67
2022-12-16T17:19:54.894Z,12.03
2022-12-16T17:22:40.182Z,14.57
2022-12-16T17:25:25.918Z,12.73
2022-12-16T17:28:11.407Z,21.40
2022-12-16T17:30:56.674Z,20.90
2022-12-16T17:33:41.725Z,18.47
2022-12-16T17:36:34.629Z,17.63
2022-12-16T17:39:20.514Z,30.70
2022-12-16T17:42:05.736Z,22.70
2022-12-16T17:44:51.066Z,26.73
2022-12-16T17:47:36.761Z,41.20
2022-12-16T17:50:23.804Z,37.77
2022-12-16T17:53:13.625Z,34.80
2022-12-16T17:55:59.399Z,44.97
2022-12-16T17:58:52.743Z,40.00
2022-12-16T18:01:39.024Z,47.13
2022-12-16T18:04:24.831Z,44.87
2022-12-16T18:07:10.151Z,46.03
2022-12-16T18:09:55.388Z,40.00
2022-12-16T18:12:41.173Z,31.10
2022-12-16T18:15:27.482Z,40.67
2022-12-16T18:18:12.725Z,45.33
2022-12-16T18:20:57.881Z,52.97
2022-12-16T18:23:42.982Z,48.73
2022-12-16T18:26:28.870Z,48.70
2022-12-16T18:29:14.529Z,58.13
2022-12-16T18:32:02.904Z,54.10
2022-12-16T18:34:48.426Z,52.43
2022-12-16T18:37:33.636Z,58.50
2022-12-16T18:40:18.843Z,55.90
2022-12-16T18:43:04.036Z,55.60
2022-12-16T18:45:49.577Z,51.90
2022-12-16T18:48:34.996Z,58.07
2022-12-16T18:51:20.616Z,49.80
2022-12-16T18:54:08.484Z,52.53
2022-12-16T18:56:53.719Z,49.37
2022-12-16T18:59:38.839Z,35.10
2022-12-16T19:02:24.165Z,40.17
2022-12-16T19:05:09.450Z,43.03
2022-12-16T19:07:54.622Z,34.63
2022-12-16T19:10:40.449Z,34.27
2022-12-16T19:13:25.808Z,35.07
2022-12-16T19:16:15.462Z,34.47
2022-12-16T19:19:01.286Z,30.57
2022-12-16T19:24:54.962Z,27.77
2022-12-16T19:27:42.149Z,28.47
2022-12-16T19:30:28.553Z,36.00
2022-12-16T19:33:13.993Z,28.50
2022-12-16T19:35:59.483Z,27.40
2022-12-16T19:38:44.623Z,32.17
2022-12-16T19:41:33.868Z,29.97
2022-12-16T19:44:23.377Z,24.40
2022-12-16T19:50:14.089Z,27.53
2022-12-16T19:52:59.331Z,31.80
2022-12-16T19:55:44.350Z,23.20
2022-12-16T19:58:29.538Z,29.77
2022-12-16T20:01:14.891Z,24.53
2022-12-16T20:04:00.122Z,25.37
2022-12-16T20:06:45.439Z,23.97
2022-12-16T20:09:30.668Z,19.77
2022-12-16T20:12:15.869Z,25.20
2022-12-16T20:15:01.250Z,24.17
2022-12-16T20:17:46.578Z,24.33
2022-12-16T20:20:31.859Z,26.67
2022-12-16T20:23:17.110Z,27.77
2022-12-16T20:26:02.242Z,24.10
2022-12-16T20:28:57.755Z,34.83
2022-12-16T20:31:42.940Z,26.47
2022-12-16T20:34:28.158Z,28.03
2022-12-16T20:37:13.366Z,29.87
2022-12-16T20:39:58.552Z,29.13
2022-12-16T20:42:44.887Z,25.30
2022-12-16T20:45:34.985Z,21.73
2022-12-16T20:48:20.686Z,20.30
2022-12-16T20:51:14.178Z,23.93
2022-12-16T20:53:59.992Z,25.20
2022-12-16T20:56:45.249Z,27.40
2022-12-16T20:59:30.542Z,25.23
2022-12-16T21:02:25.883Z,20.77
2022-12-16T21:05:13.519Z,19.50
2022-12-16T21:07:58.733Z,23.73
2022-12-16T21:10:44.167Z,22.60
2022-12-16T21:13:32.624Z,17.67
2022-12-16T21:16:19.342Z,22.60
2022-12-16T21:19:04.506Z,25.90
2022-12-16T21:21:49.760Z,21.90
2022-12-16T21:24:35.023Z,23.73
2022-12-16T21:27:20.264Z,25.27
2022-12-16T21:30:05.592Z,21.93
2022-12-16T21:32:50.949Z,21.63
2022-12-16T21:35:39.088Z,26.80
2022-12-16T21:38:31.419Z,24.43
2022-12-16T21:41:17.014Z,31.30
2022-12-16T21:44:02.107Z,29.37
2022-12-16T21:46:47.528Z,39.87
2022-12-16T21:49:34.794Z,45.33
2022-12-16T21:52:20.041Z,33.87
2022-12-16T21:55:05.467Z,62.10
2022-12-16T21:57:51.174Z,48.80
2022-12-16T22:00:38.698Z,54.77
2022-12-16T22:03:24.015Z,44.17
2022-12-16T22:06:09.328Z,39.93
2022-12-16T22:08:56.239Z,57.10
2022-12-16T22:11:41.852Z,44.10
2022-12-16T22:14:27.074Z,73.80
2022-12-16T22:17:12.520Z,53.80
2022-12-16T22:19:57.931Z,48.93
2022-12-16T22:22:43.328Z,57.43
2022-12-16T22:25:28.949Z,41.40
2022-12-16T22:28:14.115Z,50.97
2022-12-16T22:30:59.513Z,38.60
2022-12-16T22:33:44.557Z,49.90
2022-12-16T22:36:31.898Z,42.93
2022-12-16T22:39:17.313Z,60.60
2022-12-16T22:42:02.689Z,43.77
2022-12-16T22:44:48.026Z,34.93
2022-12-16T22:47:33.337Z,56.00
2022-12-16T22:50:18.562Z,46.77
2022-12-16T22:53:03.927Z,40.33
2022-12-16T22:55:49.286Z,37.23
2022-12-16T22:58:34.604Z,40.40
2022-12-16T23:01:19.805Z,39.57
2022-12-16T23:04:05.071Z,32.20
2022-12-16T23:06:50.161Z,37.23
2022-12-16T23:09:35.435Z,38.00
2022-12-16T23:12:20.764Z,30.93
2022-12-16T23:15:06.206Z,32.10
2022-12-16T23:17:51.406Z,38.67
2022-12-16T23:20:36.987Z,34.70
2022-12-16T23:23:22.386Z,40.20
2022-12-16T23:26:15.724Z,32.67
2022-12-16T23:29:00.946Z,42.23
2022-12-16T23:31:46.413Z,41.93
2022-12-16T23:34:31.802Z,40.07
2022-12-16T23:37:16.993Z,49.23
2022-12-16T23:40:02.281Z,39.30
2022-12-16T23:42:47.487Z,44.03
2022-12-16T23:45:32.749Z,47.93
2022-12-16T23:48:27.156Z,40.63
2022-12-16T23:51:12.989Z,37.00
2022-12-16T23:53:58.566Z,30.00
2022-12-16T23:56:44.234Z,47.30
2022-12-16T23:59:29.423Z,39.50
